Time;durP1;ratioP1;P1;durP2;ratioP2;P2;SDS_P1;SDS_P2;PMS_P1;PMS_P2;Temp;Humidity;BMP_temperature;BMP_pressure;BME280_temperature;BME280_humidity;BME280_pressure;Samples;Min_cycle;Max_cycle;Signal;HPM_P1;HPM_P2
2020/12/28 00:01:31;;;;;;;11.65;8.52;;;;;;;-0.07;67.29;92353.09;4992486;28;20062;-76
2020/12/28 00:03:56;;;;;;;13.57;8.30;;;;;;;-0.45;69.03;92340.59;4992644;28;20142;-76
2020/12/28 00:06:21;;;;;;;10.25;8.48;;;;;;;-0.31;67.13;92243.81;4992571;28;20061;-75
2020/12/28 00:08:47;;;;;;;13.73;8.07;;;;;;;0.00;67.01;92342.97;4992263;28;20084;-75
2020/12/28 00:11:16;;;;;;;12.35;8.02;;;;;;;0.41;66.52;92336.50;4993198;28;20073;-76
2020/12/28 00:13:41;;;;;;;9.18;7.78;;;;;;;0.44;66.50;92344.50;4992213;28;20038;-76
2020/12/28 00:16:07;;;;;;;16.55;8.57;;;;;;;0.79;65.73;92328.75;4992324;28;20090;-76
2020/12/28 00:18:32;;;;;;;11.10;8.07;;;;;;;0.49;65.05;92328.66;4992228;28;20161;-76
2020/12/28 00:20:57;;;;;;;16.13;8.77;;;;;;;0.78;65.26;92328.00;4992483;28;20081;-76
2020/12/28 00:23:22;;;;;;;10.98;7.88;;;;;;;1.19;64.62;92313.56;4990784;28;20176;-76
2020/12/28 00:25:48;;;;;;;13.40;8.13;;;;;;;1.47;63.80;92307.88;4993996;28;20026;-77
2020/12/28 00:28:13;;;;;;;12.68;8.43;;;;;;;1.55;63.72;92273.78;4990555;28;20518;-76
2020/12/28 00:30:38;;;;;;;9.38;7.40;;;;;;;1.80;63.01;92293.06;4992037;28;20034;-76
2020/12/28 00:33:03;;;;;;;10.63;8.73;;;;;;;1.94;62.17;92292.03;4991644;28;20519;-76
2020/12/28 00:35:29;;;;;;;9.80;8.23;;;;;;;2.05;62.02;92291.34;4991913;28;20022;-77
2020/12/28 00:37:54;;;;;;;10.35;8.10;;;;;;;2.09;61.54;92281.72;4993837;28;20057;-77
2020/12/28 00:40:19;;;;;;;9.25;7.72;;;;;;;2.22;61.86;92284.44;4991930;28;20030;-77
2020/12/28 00:42:44;;;;;;;11.02;7.43;;;;;;;2.22;61.68;92276.56;4990491;28;20428;-77
2020/12/28 00:45:10;;;;;;;8.52;7.32;;;;;;;2.40;61.24;92285.03;4990496;28;20038;-75
2020/12/28 00:47:36;;;;;;;11.30;7.88;;;;;;;2.39;60.79;92288.75;4990688;28;20120;-77
2020/12/28 00:50:03;;;;;;;10.02;7.00;;;;;;;2.46;60.37;92300.28;4993503;28;20041;-76
2020/12/28 00:52:28;;;;;;;9.15;8.18;;;;;;;2.47;60.69;92280.81;4991633;28;20149;-76
2020/12/28 00:54:54;;;;;;;10.20;7.63;;;;;;;2.45;60.05;92258.59;4991611;28;20038;-76
2020/12/28 00:57:19;;;;;;;8.70;7.40;;;;;;;2.51;60.19;92265.97;4990409;28;20030;-77
2020/12/28 00:59:44;;;;;;;9.18;7.35;;;;;;;2.52;59.46;92262.25;4991488;28;20132;-77
2020/12/28 01:02:09;;;;;;;8.75;6.85;;;;;;;2.58;59.37;92254.94;4993312;28;20033;-76
2020/12/28 01:04:35;;;;;;;11.20;7.32;;;;;;;2.53;59.61;92253.28;4991754;28;20066;-76
2020/12/28 01:07:00;;;;;;;7.78;6.85;;;;;;;2.74;59.24;92286.56;4991230;28;20205;-76
2020/12/28 01:09:25;;;;;;;8.98;7.18;;;;;;;2.75;59.52;92285.47;4991316;28;20041;-76
2020/12/28 01:11:50;;;;;;;11.93;7.53;;;;;;;2.70;58.81;92267.31;4991242;28;20038;-74
2020/12/28 01:14:16;;;;;;;10.82;7.05;;;;;;;2.84;59.27;92286.16;4993482;28;20584;-75
2020/12/28 01:16:44;;;;;;;8.52;7.25;;;;;;;2.76;59.03;92272.03;4989933;28;20035;-75
2020/12/28 01:19:10;;;;;;;9.63;6.20;;;;;;;2.90;59.53;92289.34;4990980;28;20038;-76
2020/12/28 01:21:35;;;;;;;9.55;7.38;;;;;;;2.65;58.84;92249.16;4989798;28;20039;-75
2020/12/28 01:24:00;;;;;;;8.98;7.25;;;;;;;2.80;59.11;92272.91;4991426;28;20603;-76
2020/12/28 01:26:26;;;;;;;8.68;6.68;;;;;;;2.88;59.31;92276.56;4990882;28;20022;-76
2020/12/28 01:28:51;;;;;;;9.43;7.35;;;;;;;2.83;59.10;92277.53;4992878;28;20034;-76
2020/12/28 01:31:16;;;;;;;7.50;6.70;;;;;;;2.78;59.21;92263.84;4991248;28;20404;-76
2020/12/28 01:33:42;;;;;;;10.75;6.97;;;;;;;2.83;59.53;92272.28;4991149;28;20031;-77
2020/12/28 01:36:07;;;;;;;8.75;6.10;;;;;;;2.77;58.83;92263.06;4991048;28;20123;-76
2020/12/28 01:38:32;;;;;;;9.18;6.80;;;;;;;2.78;59.18;92272.47;4989482;28;20061;-76
2020/12/28 01:40:59;;;;;;;8.65;6.57;;;;;;;2.78;59.43;92277.72;4992896;28;20056;-77
2020/12/28 01:43:26;;;;;;;8.07;6.28;;;;;;;2.81;59.23;92284.19;4990655;28;20045;-76
2020/12/28 01:45:51;;;;;;;8.63;6.63;;;;;;;2.67;59.04;92267.97;4991494;28;20034;-77
2020/12/28 01:48:17;;;;;;;10.18;6.72;;;;;;;2.66;58.93;92255.94;4990861;28;20518;-77
2020/12/28 01:50:43;;;;;;;7.80;6.45;;;;;;;2.71;59.29;92255.72;4991037;28;20034;-77
2020/12/28 01:53:08;;;;;;;6.53;5.93;;;;;;;2.66;59.21;92254.06;4992622;28;20026;-77
2020/12/28 01:55:33;;;;;;;6.93;5.68;;;;;;;2.48;58.84;92243.00;4990053;28;20489;-76
2020/12/28 01:57:59;;;;;;;6.90;6.00;;;;;;;2.48;59.50;92255.34;4990746;28;20097;-76
2020/12/28 02:00:24;;;;;;;7.28;5.75;;;;;;;2.40;59.27;92259.56;4989476;28;20039;-77
2020/12/28 02:02:50;;;;;;;8.25;6.18;;;;;;;2.32;59.68;92261.19;4990616;28;20030;-77
2020/12/28 02:05:16;;;;;;;7.35;5.78;;;;;;;2.11;59.37;92262.31;4992720;28;20050;-75
2020/12/28 02:07:42;;;;;;;7.97;5.88;;;;;;;1.97;60.15;92258.09;4990680;28;20145;-76
2020/12/28 02:10:09;;;;;;;9.25;6.18;;;;;;;1.95;60.70;92244.53;4990508;28;20054;-76
2020/12/28 02:12:36;;;;;;;6.78;5.30;;;;;;;1.97;60.99;92252.09;4990739;28;20109;-76
2020/12/28 02:15:01;;;;;;;7.85;5.72;;;;;;;1.94;60.52;92236.97;4990716;28;20042;-77
2020/12/28 02:17:27;;;;;;;7.32;6.05;;;;;;;1.81;60.58;92225.69;4989556;28;20085;-78
2020/12/28 02:19:52;;;;;;;6.30;5.60;;;;;;;1.91;61.21;92254.13;4992770;28;20101;-78
2020/12/28 02:22:18;;;;;;;5.43;4.93;;;;;;;1.92;61.06;92258.28;4990784;28;20030;-76
2020/12/28 02:24:43;;;;;;;9.55;5.43;;;;;;;1.84;61.07;92232.88;4990879;28;20092;-77
2020/12/28 02:27:09;;;;;;;8.57;5.15;;;;;;;2.05;61.07;92241.53;4990595;28;20088;-76
2020/12/28 02:29:34;;;;;;;5.78;5.18;;;;;;;2.03;60.85;92224.56;4990313;28;20066;-76
2020/12/28 02:31:59;;;;;;;5.18;4.47;;;;;;;2.09;61.00;92205.69;4992355;28;20050;-77
2020/12/28 02:34:25;;;;;;;6.68;5.10;;;;;;;2.23;61.00;92212.53;4990510;28;20047;-76
2020/12/28 02:36:51;;;;;;;7.65;4.93;;;;;;;2.29;60.34;92206.75;4990327;28;20037;-76
2020/12/28 02:39:16;;;;;;;5.28;4.60;;;;;;;2.30;59.72;92202.25;4990387;28;20062;-76
2020/12/28 02:41:41;;;;;;;6.43;4.65;;;;;;;2.32;60.18;92200.09;4990291;28;20521;-76
2020/12/28 02:44:07;;;;;;;6.13;4.80;;;;;;;2.25;60.02;92192.78;4992429;28;20030;-76
2020/12/28 02:46:32;;;;;;;4.85;4.35;;;;;;;2.20;60.15;92168.59;4989389;28;20058;-79
2020/12/28 02:48:57;;;;;;;7.25;4.40;;;;;;;2.18;60.22;92176.78;4990276;28;20046;-78
2020/12/28 02:51:23;;;;;;;5.43;4.53;;;;;;;2.16;59.70;92176.34;4990219;28;20042;-75
2020/12/28 02:53:48;;;;;;;5.50;4.10;;;;;;;2.26;59.42;92186.44;4990198;28;20030;-76
2020/12/28 02:56:14;;;;;;;4.32;3.92;;;;;;;2.28;59.91;92180.84;4992338;28;20472;-75
2020/12/28 02:58:39;;;;;;;4.90;4.15;;;;;;;2.29;59.69;92170.03;4989989;28;20039;-76
2020/12/28 03:01:04;;;;;;;6.30;4.50;;;;;;;2.51;59.22;92179.38;4990454;28;20542;-76
2020/12/28 03:03:29;;;;;;;6.05;4.07;;;;;;;2.52;58.87;92157.31;4990303;28;20062;-76
2020/12/28 03:05:55;;;;;;;4.97;4.47;;;;;;;2.63;58.92;92165.50;4989898;28;20074;-77
2020/12/28 03:08:20;;;;;;;7.15;3.67;;;;;;;2.58;59.07;92149.97;4992421;28;20022;-77
2020/12/28 03:10:45;;;;;;;4.22;3.83;;;;;;;2.60;57.88;92148.53;4993871;28;20037;-76
2020/12/28 03:13:11;;;;;;;7.57;4.32;;;;;;;2.60;57.78;92155.66;4991917;28;20097;-76
2020/12/28 03:15:36;;;;;;;5.13;3.63;;;;;;;2.64;57.79;92153.16;4993445;28;20038;-77
2020/12/28 03:18:02;;;;;;;5.32;4.32;;;;;;;2.61;57.80;92149.34;4992535;28;20050;-76
2020/12/28 03:20:27;;;;;;;6.18;4.50;;;;;;;2.74;57.56;92150.09;4993306;28;20034;-74
2020/12/28 03:22:52;;;;;;;4.80;4.32;;;;;;;2.83;57.70;92156.78;4995209;28;20026;-76
2020/12/28 03:25:18;;;;;;;4.20;3.80;;;;;;;2.81;57.43;92148.44;4991894;28;20504;-77
2020/12/28 03:27:43;;;;;;;5.40;4.28;;;;;;;2.80;57.32;92131.16;4993179;28;20392;-76
2020/12/28 03:30:08;;;;;;;5.38;4.18;;;;;;;2.79;57.75;92113.91;4992955;28;20034;-77
2020/12/28 03:32:34;;;;;;;5.97;4.95;;;;;;;2.94;57.34;92136.09;4993106;28;20735;-76
2020/12/28 03:34:59;;;;;;;5.68;4.38;;;;;;;2.81;57.25;92108.31;4995115;28;20014;-76
2020/12/28 03:37:24;;;;;;;5.63;4.70;;;;;;;2.85;58.06;92114.44;4993200;28;20065;-77
2020/12/28 03:39:49;;;;;;;4.53;4.05;;;;;;;2.97;57.67;92117.06;4992760;28;20570;-77
2020/12/28 03:42:15;;;;;;;7.25;4.60;;;;;;;2.99;57.86;92114.88;4992912;28;20042;-77
2020/12/28 03:44:40;;;;;;;5.32;4.40;;;;;;;2.98;57.74;92112.59;4992803;28;20502;-75
2020/12/28 03:47:05;;;;;;;9.20;4.75;;;;;;;3.06;57.88;92111.69;4994768;28;20037;-76
2020/12/28 03:49:30;;;;;;;4.60;4.10;;;;;;;3.05;57.61;92105.66;4992666;28;20142;-76
2020/12/28 03:51:56;;;;;;;5.20;4.22;;;;;;;3.11;57.57;92100.94;4992528;28;20089;-76
2020/12/28 03:54:21;;;;;;;6.32;4.05;;;;;;;3.17;57.07;92099.63;4991501;28;20113;-75
2020/12/28 03:56:46;;;;;;;6.13;4.88;;;;;;;3.07;57.34;92066.72;4991314;28;20126;-75
2020/12/28 03:59:12;;;;;;;5.90;4.38;;;;;;;3.30;56.49;92105.63;4993264;28;20014;-75
2020/12/28 04:01:37;;;;;;;7.30;4.22;;;;;;;3.07;56.31;92106.13;4992445;28;20436;-75
2020/12/28 04:04:02;;;;;;;7.00;4.60;;;;;;;3.11;57.98;92096.47;4991412;28;20041;-75
2020/12/28 04:06:28;;;;;;;3.78;3.38;;;;;;;3.17;56.97;92096.22;4992077;28;20026;-75
2020/12/28 04:08:53;;;;;;;6.05;4.40;;;;;;;3.03;56.38;92092.13;4991980;28;20065;-75
2020/12/28 04:11:18;;;;;;;4.32;3.92;;;;;;;2.39;57.81;92094.63;4991907;28;20027;-75
2020/12/28 04:13:43;;;;;;;5.20;4.10;;;;;;;2.56;59.65;92099.69;4994063;28;20058;-76
2020/12/28 04:16:09;;;;;;;5.80;4.43;;;;;;;2.68;58.93;92088.44;4992171;28;20050;-76
2020/12/28 04:18:34;;;;;;;5.22;4.30;;;;;;;2.54;58.88;92104.50;4990080;28;20574;-75
2020/12/28 04:20:59;;;;;;;4.70;4.00;;;;;;;2.82;58.34;92092.25;4992214;28;20042;-76
2020/12/28 04:23:24;;;;;;;5.13;4.20;;;;;;;2.91;58.81;92086.84;4992108;28;20036;-76
2020/12/28 04:25:50;;;;;;;6.18;4.93;;;;;;;2.92;57.87;92096.28;4994296;28;20046;-75
2020/12/28 04:28:16;;;;;;;9.20;5.95;;;;;;;2.67;57.57;92066.66;4991779;28;20070;-75
2020/12/28 04:30:41;;;;;;;7.22;5.05;;;;;;;2.56;58.47;92105.72;4992330;28;20050;-75
2020/12/28 04:33:06;;;;;;;7.15;5.38;;;;;;;2.92;59.50;92112.03;4991792;28;20088;-75
2020/12/28 04:35:32;;;;;;;7.70;5.45;;;;;;;2.85;58.66;92088.94;4990777;28;20535;-75
2020/12/28 04:37:57;;;;;;;6.88;5.35;;;;;;;2.99;58.77;92096.50;4992629;28;20046;-76
2020/12/28 04:40:22;;;;;;;8.20;5.93;;;;;;;3.06;59.10;92093.28;4990146;28;20038;-75
2020/12/28 04:42:48;;;;;;;8.77;6.03;;;;;;;3.18;59.55;92092.53;4991788;28;20050;-75
2020/12/28 04:45:13;;;;;;;7.38;5.90;;;;;;;3.22;59.27;92101.25;4991914;28;20038;-75
2020/12/28 04:47:38;;;;;;;8.93;5.82;;;;;;;3.20;58.89;92088.47;4990372;28;20482;-76
2020/12/28 04:50:05;;;;;;;6.80;5.72;;;;;;;3.26;58.91;92094.25;4993375;28;20038;-75
2020/12/28 04:52:31;;;;;;;8.57;5.25;;;;;;;3.29;59.26;92078.59;4991491;28;20034;-76
2020/12/28 04:54:56;;;;;;;7.82;5.50;;;;;;;3.41;59.28;92082.28;4991515;28;20146;-75
2020/12/28 04:57:22;;;;;;;6.18;5.30;;;;;;;3.48;58.18;92075.38;4991312;28;20154;-76
2020/12/28 04:59:55;;;;;;;6.93;5.05;;;;;;;3.52;57.97;92070.94;4991299;28;20038;-74
2020/12/28 05:02:22;;;;;;;7.70;4.80;;;;;;;3.62;57.41;92065.22;4991004;28;20393;-75
2020/12/28 05:04:47;;;;;;;7.38;5.05;;;;;;;3.71;57.17;92067.72;4991997;28;20034;-76
2020/12/28 05:07:13;;;;;;;6.57;4.25;;;;;;;3.64;56.87;92049.13;4990985;28;20046;-74
2020/12/28 05:09:38;;;;;;;5.90;4.15;;;;;;;3.57;55.63;92035.78;4989529;28;20042;-74
2020/12/28 05:12:04;;;;;;;7.28;4.00;;;;;;;3.50;54.57;92065.28;4990898;28;20053;-76
2020/12/28 05:14:31;;;;;;;5.47;4.00;;;;;;;3.59;55.57;92060.66;4991171;28;20025;-74
2020/12/28 05:17:07;;;;;;;5.00;3.63;;;;;;;3.20;55.48;92080.59;4992935;28;20101;-75
2020/12/28 05:19:34;;;;;;;4.80;3.28;;;;;;;3.35;56.27;92063.34;4990678;28;20048;-75
2020/12/28 05:21:59;;;;;;;4.93;3.60;;;;;;;3.43;56.43;92051.97;4989347;28;20088;-76
2020/12/28 05:24:25;;;;;;;4.38;3.20;;;;;;;3.52;55.84;92049.94;4990995;28;20419;-76
2020/12/28 05:26:51;;;;;;;4.28;3.80;;;;;;;3.55;56.24;92044.00;4990742;28;20610;-75
2020/12/28 05:29:20;;;;;;;4.18;3.38;;;;;;;3.71;56.02;92045.91;4992382;28;20376;-76
2020/12/28 05:31:46;;;;;;;3.60;2.97;;;;;;;3.65;54.54;92040.91;4991178;28;20041;-74
2020/12/28 05:34:13;;;;;;;4.68;2.90;;;;;;;3.62;54.65;92036.31;4990822;28;20035;-74
2020/12/28 05:36:39;;;;;;;3.25;2.95;;;;;;;3.64;54.77;92030.72;4989338;28;20209;-75
2020/12/28 05:39:05;;;;;;;4.10;3.13;;;;;;;3.52;53.62;92031.53;4989163;28;20504;-75
2020/12/28 05:41:30;;;;;;;4.78;3.60;;;;;;;3.23;54.88;92051.03;4989157;28;20109;-75
2020/12/28 05:43:56;;;;;;;3.95;3.20;;;;;;;2.33;56.50;92076.50;4992648;28;20097;-76
2020/12/28 05:46:22;;;;;;;3.80;2.90;;;;;;;1.55;59.41;92064.22;4990650;28;20030;-75
2020/12/28 05:48:54;;;;;;;4.35;3.58;;;;;;;1.68;58.75;92079.97;4990673;28;20061;-76
2020/12/28 05:51:19;;;;;;;4.17;2.93;;;;;;;2.04;58.10;92101.03;4989237;28;20061;-76
2020/12/28 05:53:47;;;;;;;4.97;2.83;;;;;;;1.43;59.02;92100.81;4990626;28;20480;-75
2020/12/28 05:56:13;;;;;;;5.78;2.92;;;;;;;1.23;59.91;92114.72;4992401;28;20022;-75
2020/12/28 05:58:42;;;;;;;5.43;2.92;;;;;;;1.25;59.37;92136.88;4990221;28;20053;-75
2020/12/28 06:01:10;;;;;;;4.75;3.25;;;;;;;1.21;60.79;92135.97;4988920;28;20042;-74
2020/12/28 06:03:40;;;;;;;5.30;3.45;;;;;;;1.73;59.94;92140.03;4990142;28;20105;-74
2020/12/28 06:06:07;;;;;;;8.00;3.50;;;;;;;1.10;59.85;92142.66;4990352;28;20033;-75
2020/12/28 06:08:32;;;;;;;5.65;3.45;;;;;;;1.28;60.26;92132.84;4990032;28;20022;-75
2020/12/28 06:11:03;;;;;;;5.65;3.67;;;;;;;1.75;60.55;92143.88;4992054;28;20026;-75
2020/12/28 06:13:29;;;;;;;4.55;3.72;;;;;;;2.11;59.94;92152.19;4988312;28;20050;-76
2020/12/28 06:15:59;;;;;;;7.03;3.90;;;;;;;1.77;60.04;92138.31;4990192;28;20065;-73
2020/12/28 06:18:24;;;;;;;5.15;3.83;;;;;;;1.90;60.47;92131.28;4990151;28;20496;-74
2020/12/28 06:20:50;;;;;;;9.98;4.05;;;;;;;1.92;61.11;92137.72;4990038;28;20038;-74
2020/12/28 06:23:23;;;;;;;16.02;5.45;;;;;;;1.88;60.44;92131.56;4991860;28;20026;-75
2020/12/28 06:25:55;;;;;;;11.25;5.00;;;;;;;2.14;61.05;92120.81;4990535;28;20475;-74
2020/12/28 06:28:25;;;;;;;6.13;5.13;;;;;;;2.45;59.88;92114.31;4988364;28;20435;-74
2020/12/28 06:30:51;;;;;;;6.15;5.07;;;;;;;2.53;60.39;92087.22;4989989;28;20375;-74
2020/12/28 06:33:17;;;;;;;9.27;5.50;;;;;;;2.77;60.17;92092.47;4989705;28;20038;-76
2020/12/28 06:35:42;;;;;;;8.13;5.40;;;;;;;2.86;59.78;92092.34;4989562;28;20396;-76
2020/12/28 06:38:08;;;;;;;7.47;5.22;;;;;;;3.01;59.54;92098.78;4990434;28;20176;-75
2020/12/28 06:40:34;;;;;;;8.63;6.60;;;;;;;3.01;58.95;92091.66;4989312;28;20424;-75
2020/12/28 06:43:10;;;;;;;7.57;6.15;;;;;;;3.19;59.41;92094.06;4992352;28;20030;-75
2020/12/28 06:45:39;;;;;;;11.23;6.70;;;;;;;3.24;59.53;92086.72;4993341;28;20069;-74
2020/12/28 06:48:15;;;;;;;8.90;5.95;;;;;;;3.18;59.16;92053.13;4993415;28;20420;-75
2020/12/28 06:50:41;;;;;;;11.25;6.30;;;;;;;3.32;58.85;92056.13;4993107;28;20092;-75
2020/12/28 06:53:06;;;;;;;10.05;6.53;;;;;;;3.38;58.45;92046.94;4995288;28;20030;-74
2020/12/28 06:55:31;;;;;;;8.82;5.93;;;;;;;3.42;58.93;92036.50;4993244;28;20385;-73
2020/12/28 06:58:01;;;;;;;8.68;6.30;;;;;;;3.24;57.46;92012.41;4993000;28;20124;-73
2020/12/28 07:00:26;;;;;;;9.50;6.10;;;;;;;3.38;58.71;92033.81;4993020;28;20137;-74
2020/12/28 07:02:52;;;;;;;10.02;6.15;;;;;;;3.50;59.08;92041.63;4992840;28;20129;-74
2020/12/28 07:05:27;;;;;;;14.27;6.72;;;;;;;3.55;58.91;92038.75;4993442;28;20106;-73
2020/12/28 07:07:55;;;;;;;7.85;5.75;;;;;;;3.58;58.51;92032.06;4993528;28;20030;-74
2020/12/28 07:10:22;;;;;;;11.57;6.30;;;;;;;3.69;58.97;92042.88;4992019;28;20066;-73
2020/12/28 07:12:48;;;;;;;6.95;5.75;;;;;;;3.68;58.08;92043.94;4992287;28;20046;-74
2020/12/28 07:15:17;;;;;;;7.82;5.75;;;;;;;3.76;58.68;92054.31;4992766;28;20038;-73
2020/12/28 07:17:43;;;;;;;8.50;5.40;;;;;;;3.73;57.77;92057.59;4991163;28;20042;-73
2020/12/28 07:20:12;;;;;;;10.68;5.70;;;;;;;3.74;58.17;92035.50;4992859;28;20046;-74
2020/12/28 07:22:42;;;;;;;7.97;6.03;;;;;;;3.84;57.96;92050.03;4990882;28;20043;-74
2020/12/28 07:25:09;;;;;;;10.68;5.28;;;;;;;3.90;57.95;92035.53;4992124;28;20042;-75
2020/12/28 07:27:35;;;;;;;8.30;5.68;;;;;;;4.00;57.62;92037.66;4991936;28;20048;-74
2020/12/28 07:30:08;;;;;;;11.10;5.63;;;;;;;3.97;56.84;92021.78;4991911;28;20038;-74
2020/12/28 07:32:33;;;;;;;7.82;5.10;;;;;;;3.98;56.43;92021.44;4992223;28;20061;-73
2020/12/28 07:34:59;;;;;;;4.65;4.03;;;;;;;4.03;54.46;92010.66;4993961;28;20053;-74
2020/12/28 07:37:27;;;;;;;7.80;4.90;;;;;;;4.13;54.75;92004.13;4992146;28;20464;-74
2020/12/28 07:39:53;;;;;;;11.35;5.63;;;;;;;4.23;54.87;91995.72;4992003;28;20036;-75
2020/12/28 07:42:22;;;;;;;8.15;4.80;;;;;;;4.31;55.45;92000.06;4992030;28;20034;-76
2020/12/28 07:45:08;;;;;;;6.00;4.40;;;;;;;4.33;52.78;91992.59;4991900;28;20047;-75
2020/12/28 07:47:45;;;;;;;7.28;4.75;;;;;;;4.40;54.68;92007.75;4991691;28;20026;-75
2020/12/28 07:50:13;;;;;;;8.60;5.03;;;;;;;4.51;54.26;92014.06;4993216;28;20026;-74
2020/12/28 07:52:51;;;;;;;8.10;5.03;;;;;;;4.43;53.95;91997.31;4990744;28;20047;-75
2020/12/28 07:55:20;;;;;;;7.53;4.68;;;;;;;4.61;54.16;92005.63;4991203;28;20046;-75
2020/12/28 07:58:12;;;;;;;8.23;5.25;;;;;;;4.68;54.34;91999.75;4991615;28;20077;-74
2020/12/28 08:00:43;;;;;;;7.95;4.75;;;;;;;4.75;54.59;91985.97;4991231;28;20488;-74
2020/12/28 08:03:16;;;;;;;8.25;5.18;;;;;;;4.74;54.86;91971.28;4990166;28;20050;-73
2020/12/28 08:05:43;;;;;;;9.35;5.03;;;;;;;4.79;53.89;91978.91;4991243;28;20035;-74
2020/12/28 08:08:26;;;;;;;12.65;4.90;;;;;;;4.71;53.18;91978.03;4992851;28;20037;-74
2020/12/28 08:10:59;;;;;;;6.38;5.57;;;;;;;4.74;54.29;91979.94;4991681;28;20045;-72
2020/12/28 08:13:35;;;;;;;8.73;5.22;;;;;;;4.69;54.18;91956.50;4991487;28;20033;-72
2020/12/28 08:16:12;;;;;;;7.90;5.47;;;;;;;4.70;54.09;91936.97;4990027;28;20150;-72
2020/12/28 08:18:52;;;;;;;7.28;5.63;;;;;;;4.78;54.03;91938.66;4990946;28;20030;-72
2020/12/28 08:21:18;;;;;;;8.90;5.18;;;;;;;4.72;53.98;91923.50;4990899;28;20057;-73
2020/12/28 08:23:55;;;;;;;8.85;6.00;;;;;;;4.77;54.37;91928.47;4989503;28;20034;-72
2020/12/28 08:26:30;;;;;;;13.27;6.50;;;;;;;4.75;53.73;91930.69;4991075;28;20034;-70
2020/12/28 08:28:58;;;;;;;9.35;6.07;;;;;;;4.45;53.47;91946.97;4992070;28;20034;-75
2020/12/28 08:31:31;;;;;;;12.65;6.28;;;;;;;4.65;54.71;91951.16;4991988;28;20043;-76
2020/12/28 08:34:05;;;;;;;12.32;6.47;;;;;;;4.71;53.86;91935.91;4990660;28;20403;-71
2020/12/28 08:36:31;;;;;;;9.05;6.10;;;;;;;4.85;53.80;91940.66;4992433;28;20038;-80
2020/12/28 08:38:57;;;;;;;9.70;6.03;;;;;;;4.61;54.24;91931.94;4991412;28;20045;-72
2020/12/28 08:41:23;;;;;;;8.35;6.05;;;;;;;3.27;55.05;91959.19;4991435;28;20034;-78
2020/12/28 08:43:49;;;;;;;10.35;6.40;;;;;;;3.77;55.43;91952.56;4992680;28;20029;-81
2020/12/28 08:46:15;;;;;;;15.88;5.38;;;;;;;4.26;54.72;91955.59;4991668;28;20439;-75
2020/12/28 08:48:42;;;;;;;7.63;4.70;;;;;;;4.41;53.21;91936.38;4992207;28;20040;-70
2020/12/28 08:51:18;;;;;;;7.18;4.63;;;;;;;4.47;50.18;91930.88;4991400;28;20042;-69
2020/12/28 08:53:45;;;;;;;6.35;4.65;;;;;;;4.71;51.12;91917.47;4991027;28;20038;-70
2020/12/28 08:56:10;;;;;;;10.95;4.78;;;;;;;4.93;51.09;91931.81;4999517;28;20035;-68
2020/12/28 08:58:36;;;;;;;8.38;5.05;;;;;;;4.95;49.25;91934.84;5000181;28;20061;-68
2020/12/28 09:01:03;;;;;;;7.78;4.75;;;;;;;4.70;49.48;91937.75;4993658;28;20030;-69
2020/12/28 09:03:29;;;;;;;12.13;4.13;;;;;;;4.36;49.10;91954.31;4989729;28;20097;-71
2020/12/28 09:05:55;;;;;;;7.75;4.07;;;;;;;4.65;51.17;91958.31;4986272;28;20121;-70
2020/12/28 09:08:20;;;;;;;5.60;4.22;;;;;;;4.89;51.19;91959.94;4971889;28;20109;-68
2020/12/28 09:10:45;;;;;;;7.68;4.25;;;;;;;5.00;51.81;91960.91;4993066;28;20093;-70
2020/12/28 09:13:11;;;;;;;8.85;4.40;;;;;;;5.07;51.06;91950.53;4990746;28;20435;-70
2020/12/28 09:15:36;;;;;;;7.10;4.13;;;;;;;5.18;51.54;91940.97;4991097;28;20038;-70
2020/12/28 09:18:01;;;;;;;12.20;3.97;;;;;;;4.97;48.92;91940.56;4989648;28;20039;-72
2020/12/28 09:20:26;;;;;;;5.10;4.20;;;;;;;5.28;51.07;91955.44;4990269;28;20030;-71
2020/12/28 09:22:52;;;;;;;9.20;4.60;;;;;;;5.40;50.80;91934.19;4992506;28;20026;-71
2020/12/28 09:25:17;;;;;;;10.50;4.32;;;;;;;5.53;49.54;91932.19;4989549;28;20038;-68
2020/12/28 09:27:44;;;;;;;11.02;4.30;;;;;;;5.59;49.09;91922.09;4990330;28;20033;-70
2020/12/28 09:30:09;;;;;;;8.30;4.38;;;;;;;5.66;48.58;91941.44;4989405;28;20034;-69
2020/12/28 09:32:34;;;;;;;5.57;4.10;;;;;;;5.38;47.31;91909.31;4990774;28;20543;-69
2020/12/28 09:35:00;;;;;;;11.68;4.53;;;;;;;5.60;48.66;91950.75;4992740;28;20030;-67
2020/12/28 09:37:25;;;;;;;8.93;4.78;;;;;;;5.62;49.33;91948.50;4990355;28;20037;-67
2020/12/28 09:39:50;;;;;;;9.88;4.10;;;;;;;5.62;48.11;91951.16;4990267;28;20046;-68
2020/12/28 09:42:15;;;;;;;8.48;4.38;;;;;;;5.58;49.04;91941.66;4990464;28;20042;-68
2020/12/28 09:44:42;;;;;;;9.18;4.93;;;;;;;5.73;48.71;91953.97;4990480;28;20508;-68
2020/12/28 09:47:07;;;;;;;16.05;4.18;;;;;;;5.77;48.70;91948.75;4992396;28;20386;-67
2020/12/28 09:49:32;;;;;;;14.35;5.10;;;;;;;5.77;49.87;91952.16;4990170;28;20046;-66
2020/12/28 09:51:58;;;;;;;7.00;4.30;;;;;;;5.85;49.05;91940.63;4990205;28;20461;-67
2020/12/28 09:54:23;;;;;;;6.13;4.40;;;;;;;6.00;49.06;91946.94;4990425;28;20035;-68
2020/12/28 09:56:49;;;;;;;11.50;4.28;;;;;;;6.14;48.98;91941.09;4990459;28;20701;-69
2020/12/28 09:59:14;;;;;;;6.25;4.35;;;;;;;6.13;48.05;91932.41;4991648;28;20026;-68
2020/12/28 10:01:43;;;;;;;10.63;4.53;;;;;;;6.20;47.70;91929.16;4988902;28;20118;-69
2020/12/28 10:04:08;;;;;;;19.63;6.03;;;;;;;6.22;48.69;91932.94;4990290;28;20042;-66
2020/12/28 10:06:35;;;;;;;10.77;4.65;;;;;;;6.17;48.16;91917.41;4990592;28;20042;-68
2020/12/28 10:09:18;;;;;;;8.05;4.43;;;;;;;6.27;48.96;91913.41;4990025;28;20041;-70
2020/12/28 10:11:43;;;;;;;9.57;4.90;;;;;;;6.29;50.14;91907.75;4990043;28;20038;-69
2020/12/28 10:14:08;;;;;;;13.77;5.78;;;;;;;6.27;48.05;91896.81;4992213;28;20018;-67
2020/12/28 10:16:34;;;;;;;6.45;4.60;;;;;;;6.24;47.40;91893.00;4990808;28;20038;-72
2020/12/28 10:19:00;;;;;;;13.00;4.45;;;;;;;6.34;47.49;91910.09;4993936;28;20034;-69
2020/12/28 10:21:26;;;;;;;8.82;4.60;;;;;;;6.27;48.72;91910.75;4994176;28;20121;-67
2020/12/28 10:23:52;;;;;;;15.98;4.85;;;;;;;6.22;46.90;91896.00;4994202;28;20041;-66
2020/12/28 10:26:22;;;;;;;18.02;5.35;;;;;;;6.21;48.11;91894.47;4995968;28;20023;-68
2020/12/28 10:28:49;;;;;;;15.95;5.40;;;;;;;6.27;47.55;91892.28;4993769;28;20488;-68
2020/12/28 10:31:15;;;;;;;7.18;4.50;;;;;;;6.28;47.43;91888.53;4992561;28;20037;-67
2020/12/28 10:33:42;;;;;;;5.65;4.63;;;;;;;6.29;47.63;91878.72;4993997;28;20042;-69
2020/12/28 10:36:23;;;;;;;10.73;4.78;;;;;;;6.22;46.36;91869.59;4993916;28;20038;-68
2020/12/28 10:38:49;;;;;;;20.45;4.70;;;;;;;6.28;47.86;91875.34;4993450;28;20058;-66
2020/12/28 10:41:15;;;;;;;21.25;5.00;;;;;;;6.29;47.53;91866.28;4994340;28;20035;-65
2020/12/28 10:43:41;;;;;;;7.93;5.35;;;;;;;5.38;46.93;91867.16;4992728;28;20046;-70
2020/12/28 10:46:08;;;;;;;19.05;6.07;;;;;;;5.08;48.75;91854.59;4994086;28;20400;-80
2020/12/28 10:48:34;;;;;;;20.38;5.97;;;;;;;5.43;49.76;91846.53;4992972;28;20041;-74
2020/12/28 10:50:59;;;;;;;20.65;6.65;;;;;;;5.63;50.90;91854.34;4992571;28;20396;-72
2020/12/28 10:53:24;;;;;;;14.65;7.47;;;;;;;5.72;49.32;91841.69;4993395;28;20058;-72
2020/12/28 10:55:49;;;;;;;17.00;7.85;;;;;;;5.80;50.13;91834.66;4995548;28;20061;-73
2020/12/28 10:58:15;;;;;;;23.65;9.05;;;;;;;5.58;49.58;91807.97;4993181;28;20116;-77
2020/12/28 11:00:41;;;;;;;11.60;7.65;;;;;;;5.37;49.26;91816.28;4992698;28;20403;-74
2020/12/28 11:03:07;;;;;;;12.30;7.35;;;;;;;5.43;49.76;91814.91;4993626;28;20065;-74
2020/12/28 11:05:33;;;;;;;12.40;6.97;;;;;;;5.58;49.88;91823.00;4992088;28;20034;-74
2020/12/28 11:07:58;;;;;;;36.60;8.00;;;;;;;5.20;50.04;91803.59;4995691;28;20030;-76
2020/12/28 11:10:23;;;;;;;12.90;8.05;;;;;;;4.39;54.38;91801.00;4993182;28;20042;-73
2020/12/28 11:12:49;;;;;;;11.93;8.02;;;;;;;4.38;53.08;91823.91;4992009;28;20037;-75
2020/12/28 11:15:14;;;;;;;21.92;8.90;;;;;;;3.55;56.14;91822.50;4993488;28;20062;-74
2020/12/28 11:17:39;;;;;;;18.73;9.15;;;;;;;4.00;55.75;91816.75;4993237;28;20070;-73
2020/12/28 11:20:05;;;;;;;21.77;9.45;;;;;;;4.64;55.36;91838.31;4994967;28;20033;-73
2020/12/28 11:22:30;;;;;;;14.43;7.38;;;;;;;3.76;55.80;91835.38;4992865;28;20467;-73
2020/12/28 11:24:55;;;;;;;14.75;9.02;;;;;;;3.98;56.23;91847.13;4993317;28;20034;-73
2020/12/28 11:27:23;;;;;;;15.82;9.38;;;;;;;4.18;54.97;91848.69;4992982;28;20072;-74
2020/12/28 11:29:48;;;;;;;12.05;8.52;;;;;;;3.73;56.16;91822.91;4992973;28;20061;-74
2020/12/28 11:32:13;;;;;;;16.58;9.18;;;;;;;3.99;56.84;91802.06;4993737;28;20469;-72
2020/12/28 11:34:39;;;;;;;15.40;9.48;;;;;;;4.20;57.44;91819.41;4993341;28;20042;-73
2020/12/28 11:37:06;;;;;;;12.30;9.20;;;;;;;2.96;60.19;91816.22;4993069;28;20530;-73